Aspen, CO (81611)

4:20 AM MST on February 09, 2016 (GMT -0700)
Pitkin County Government Offices | | Change Station
CLOSE
Current Station
Personal Weather Station
Location: Aspen, CO
Elevation: 7917 ft
Nearby Weather Stations

Elev 7917 ft 39.19 °N, 106.82 °W | Updated 26 seconds ago

Clear
Clear
18.7 °F
Feels Like 19 °F
N
0.0
Wind Variable Wind from SE
Gusts 0.0 mph

Today
High -- | Low -- °F
--% Chance of Precip.
Yesterday
High -- | Low -- °F
Precip. -- in
Pressure 30.50 in
Visibility 10.0 miles
Clouds Clear
Windchill 19 °F
Dew Point 14 °F
Humidity 83%
Rainfall 0.00 in
Snow Depth Not available.
7:06 AM 5:37 PM
New Moon, 1% visible
METAR KASE 091053Z AUTO 21007KT 10SM CLR M09/M13 A3050 RMK AO2 SLP328 T10891128
Pressure 30.50 in
Visibility 10.0 miles
Clouds Clear
Windchill 19 °F
Dew Point 14 °F
Humidity 83%
Rainfall 0.00 in
Snow Depth Not available.
7:06 AM 5:37 PM
New Moon, 1% visible
METAR KASE 091053Z AUTO 21007KT 10SM CLR M09/M13 A3050 RMK AO2 SLP328 T10891128

10-Day Weather Forecast

Almanac

Astronomy

Feb. 09, 2016 Rise Set
Actual Time
Civil Twilight
Nautical Twilight
Astronomical Twilight
Moon
Length of Visible Light
Length of Day
Tomorrow will be .
, % of the Moon is Illuminated

Today's Extremes

State Highs State Lows

Community

WunderPhotos

Upload Photos

1,891,565 photos uploaded!

WunderBlog® & News

Nearby

Air Quality

  Air Quality AQ Index Pollutant
Not available.

Snow Depth

Station Depth Elevation

Earthquake Activity

City Distance Mag. Time & Date
Minimum magnitude displayed is 2.5.

Coastal Water Temperatures

Place Temperature

Stations

Nearby Weather Stations

Station Location Temp. Windchill Dew Point Humidity Wind Precip. Elev Updated Type
                   

Watches & Warnings

There are currently no watches in effect.